Logo AVAMET
Benvolgut visitant, si us plau, ingressa Recuperar contrasenya
AVAMET paisatges

Inforatge Mislata

Dades diàries. Acumulats / Últims 30 dies disponibles

Data Temperatura (°C) Humitat rel. (%) Pressió rel. (hPa) Vent (km/h) Precipitació
Mínima Mitjana Màxima Amplitud
tèrmica
Mínima Mitjana Màxima Mínima Mitjana Màxima Predom. Mitjana Ràfega
màxima
Total
(mm)
Índex-n
Mínima Mitjana Màxima Mínima Mitjana Màxima n
0 a 1
P0 max
mm 5'
Dades mensuals acumulades fins l'últim dia disponible
02/2020 6,3 10,5 13,5 14,7 14,8 20,4 26,5 20,2 26 73 96 1.021 1.027 1.033   3,4 37,0 0,0
Dades anuals acumulades fins l'últim dia disponible
2020 2,3 8,3 14,7 12,2 8,9 17,4 26,5 24,2 26 74 97 1.015 1.026 1.035   4,2 86,9 85,0
Últims 30 dies disponibles
16-02-2020 9,5     12,4     16,1 6,6 76 89 96 1.026 1.027 1.029 W 2,4 17,7 0,0
15-02-2020 8,4     12,9     17,6 9,2 61 79 90 1.026 1.027 1.029 W 3,7 20,9 0,0
14-02-2020 10,8     14,9     21,4 10,6 42 68 87 1.025 1.026 1.027 W 4,2 24,1 0,0
13-02-2020 10,7     14,3     18,8 8,1 67 82 92 1.021 1.023 1.025 NE 1,9 16,1 0,0
12-02-2020 11,6     14,3     19,7 8,1 55 79 89 1.024 1.025 1.026 W 3,9 27,4 0,0
11-02-2020 12,8     17,2     24,4 11,6 37 64 84 1.022 1.025 1.027 W 3,7 20,9 0,0
10-02-2020 10,8     17,0     24,1 13,3 45 63 85 1.026 1.029 1.031 W 4,5 24,1 0,0
09-02-2020 7,8     12,3     17,3 9,5 58 81 91 1.028 1.030 1.033 W 1,6 17,7 0,0
08-02-2020 6,3     11,3     17,4 11,1 57 81 90 1.024 1.026 1.029 W 2,3 19,3 0,0
07-02-2020 8,8     11,6     14,8 6,0 66 80 90 1.024 1.026 1.027 W 1,0 12,9 0,0
06-02-2020 7,6     11,7     15,8 8,2 60 77 86 1.026 1.028 1.030 W 2,9 25,7 0,0
05-02-2020 9,7     13,1     16,6 6,9 50 72 86 1.027 1.030 1.032 NE 4,3 29,0 0,0
04-02-2020 13,2     18,7     26,5 13,3 26 52 79 1.022 1.025 1.028 W 3,5 19,3 0,0
03-02-2020 13,2     17,6     25,4 12,2 39 67 81 1.027 1.029 1.030 W 3,7 17,7 0,0
02-02-2020 13,5     17,9     24,9 11,4 43 67 80 1.027 1.028 1.030 W 4,5 20,9 0,0
01-02-2020 13,1     18,7     25,8 12,7 41 63 76 1.022 1.023 1.027 W 6,9 37,0 0,0
31-01-2020 14,3     17,1     21,8 7,5 50 62 72 1.021 1.023 1.025 OSO 8,9 32,2 0,0
30-01-2020 13,7     16,6     20,2 6,5 45 60 75 1.020 1.022 1.024 W 8,2 38,6 0,0
29-01-2020 14,7     16,9     20,4 5,7 54 66 73 1.022 1.023 1.024 W 8,0 32,2 0,0
28-01-2020 13,9     15,7     17,6 3,7 61 66 71 1.021 1.022 1.023 W 10,8 41,8 0,0
27-01-2020 7,9     12,2     17,1 9,2 46 65 85 1.021 1.024 1.026 W 8,0 38,6 0,0
26-01-2020 9,7     12,7     18,8 9,1 44 79 95 1.020 1.022 1.026 W 2,3 20,9 0,0
25-01-2020 10,3     12,1     13,8 3,5 80 90 93 1.019 1.020 1.023 NE 2,6 25,7 0,0
24-01-2020 8,6     11,7     14,8 6,2 71 86 93 1.022 1.023 1.025 W 1,4 16,1 0,0
23-01-2020 6,1     10,2     13,7 7,6 68 84 90 1.020 1.022 1.024 NE 2,9 17,7 0,0
22-01-2020 8,6     10,8     13,7 5,1 76 87 93 1.018 1.020 1.021 NE 7,4 35,4 9,4 0,58 1,80
21-01-2020 7,6     9,9     12,2 4,6 87 95 97 1.015 1.017 1.022 NE 11,9 61,2 39,6 0,48 4,50
20-01-2020 4,8     6,9     8,9 4,1 63 85 96 1.020 1.021 1.023 NE 28,2 86,9 19,0 0,56 1,20
19-01-2020 6,3     9,7     14,6 8,3 68 81 93 1.017 1.019 1.023 NE 10,6 66,0 17,0 0,58 1,00
18-01-2020 8,0     12,8     17,8 9,8 49 64 72 1.020 1.028 1.033 WSW 2,3 32,2 0,0
Últims 13 mesos disponibles
01/2020 2,3 7,1 14,7 10,9 8,9 15,9 21,8 19,5 55 75 95 1.017 1.026 1.034 W 4,6 86,9 85,0
12/2019 5,7 10,6 17,9 13,8 12,8 18,0 24,6 18,9 51 69 92 1.003 1.020 1.034 W 6,2 82,1 68,2
11/2019 5,2 12,2 21,1 15,8 15,8 19,9 28,9 23,7 40 55 79 999 1.011 1.019 W 8,9 64,4 4,2
10/2019 11,6 16,4 20,8 20,4 16,5 25,2 35,0 23,4 41 67 83 1.009 1.017 1.023 W 4,4 45,1 22,4
09/2019 15,7 20,4 23,9 23,9 21,1 27,5 34,3 18,6 41 71 83 1.011 1.018 1.026 SSE 6,3 59,6 112,4
08/2019 18,8 22,8 27,4 26,5 26,9 30,4 41,4 22,6 41 69 79 1.011 1.017 1.021 SSE 6,2 61,1 5,6
07/2019 21,8 23,2 25,3 26,8 27,3 30,6 37,1 15,3 49 65 77 1.006 1.015 1.022 SE 6,5 46,7 10,4
06/2019 13,5 18,6 22,4 22,7 20,2 26,5 35,3 21,8 37 62 79 1.009 1.016 1.023 SE 7,1 63,0 0,0
05/2019 9,2 15,0 20,9 18,9 18,4 22,8 32,6 23,4 47 65 85 1.006 1.016 1.025 SSE 6,5 55,6 23,0
04/2019 8,8 11,7 14,4 15,5 15,3 20,0 30,3 21,5 43 65 97 1.000 1.014 1.026 OSO 8,4 77,8 56,8
03/2019 6,7 9,8 16,1 14,7 12,8 19,7 29,3 22,6 38 58 85 1.012 1.024 1.030 S 5,7 58,0 14,4
02/2019 3,7 7,3 11,0 12,1 12,6 17,8 25,8 22,1 34 64 77 995 1.026 1.035 SSO 5,1 70,9 0,0
01/2019 2,0 6,4 12,6 11,1 12,3 16,9 20,7 18,7 40 58 79 1.002 1.020 1.032 SO 5,5 64,8 0,2
Tots els anys disponibles
2019 2,0 14,6 27,4 18,6 12,3 23,0 41,4 39,4 34 64 97 995 1.018 1.035 W 6,4 82,1 317,6
2018 2,6 15,0 26,3 18,6 9,0 22,8 36,6 34,0 36 66 93 994 1.017 1.036 S 5,8 77,8 571,4
Temperatura (°C)
Humitat relativa (%)
Velocitat del vent i ràfega màxima (km/h)
Direcció del vent (°)
Pressió (hPa)
Precipitació (mm)
Nota sobre les dades: s'avisa a l'usuari de la provisionalitat i no oficialitat d'aquestes dades
Logo AVAMET blanc
Web allotjada a Sollutia
Llicència de Creative CommonsLa web d'AVAMET i els seus continguts estan subjectes a una llicència de
Reconeixement - No Comercial - Compartir igual
Últimes estacions:  Sorita (AVAMET), Massalavés - Ajuntament (Soci/Inforatge), Albuixech - Polígon (Inforatge), La Torre d'en Besora (Ajuntament soci), Xixona - Sogorb Barranc Blanc (Soci), Pedreguer - Patronat (Soci) - - -